Time;durP1;ratioP1;P1;durP2;ratioP2;P2;SDS_P1;SDS_P2;PMS_P1;PMS_P2;Temp;Humidity;BMP_temperature;BMP_pressure;BME280_temperature;BME280_humidity;BME280_pressure;Samples;Min_cycle;Max_cycle;Signal;HPM_P1;HPM_P2
2022/09/06 00:01:37;;;;;;;;;;;;;;;18.41;100.00;-25585.44;5055640;28;20508;-83
2022/09/06 00:04:02;;;;;;;;;;;;;;;18.40;100.00;-25585.00;5055972;28;20392;-85
2022/09/06 00:06:28;;;;;;;;;;;;;;;18.36;100.00;-25583.84;5056643;28;19917;-85
2022/09/06 00:08:53;;;;;;;;;;;;;;;18.33;100.00;-25583.13;5056165;28;19929;-84
2022/09/06 00:11:18;;;;;;;;;;;;;;;18.33;100.00;-25582.97;5056112;28;19920;-83
2022/09/06 00:13:44;;;;;;;;;;;;;;;18.36;100.00;-25583.84;5038919;28;19971;-83
2022/09/06 00:16:11;;;;;;;;;;;;;;;18.39;100.00;-25584.72;5055612;28;19920;-84
2022/09/06 00:18:36;;;;;;;;;;;;;;;18.40;100.00;-25585.00;5057865;28;19917;-85
2022/09/06 00:21:02;;;;;;;;;;;;;;;18.47;100.00;-25587.16;5040691;28;19932;-85
2022/09/06 00:23:31;;;;;;;;;;;;;;;18.50;100.00;-25587.75;5055622;28;20593;-85
2022/09/06 00:26:03;;;;;;;;;;;;;;;18.46;100.00;-25586.72;5056061;28;19924;-82
2022/09/06 00:28:28;;;;;;;;;;;;;;;18.47;100.00;-25587.03;5055445;28;19956;-81
2022/09/06 00:30:54;;;;;;;;;;;;;;;18.54;100.00;-25589.03;5055313;28;19916;-85
2022/09/06 00:33:27;;;;;;;;;;;;;;;18.58;100.00;-25590.22;5055037;28;19924;-85
2022/09/06 00:35:57;;;;;;;;;;;;;;;18.54;100.00;-25589.03;5057069;28;19921;-85
2022/09/06 00:38:22;;;;;;;;;;;;;;;18.51;100.00;-25588.19;5055489;28;19921;-87
2022/09/06 00:40:48;;;;;;;;;;;;;;;18.48;100.00;-25587.44;5055386;28;20269;-83
2022/09/06 00:43:13;;;;;;;;;;;;;;;18.49;100.00;-25587.59;5054621;28;19929;-84
2022/09/06 00:45:39;;;;;;;;;;;;;;;18.48;100.00;-25587.44;5055524;28;19917;-86
2022/09/06 00:48:05;;;;;;;;;;;;;;;18.48;100.00;-25587.31;5056899;28;19963;-86
2022/09/06 00:50:31;;;;;;;;;;;;;;;18.47;100.00;-25587.03;5055841;28;19920;-87
2022/09/06 00:52:57;;;;;;;;;;;;;;;18.46;100.00;-25586.88;5055019;28;19920;-84
2022/09/06 00:55:25;;;;;;;;;;;;;;;18.44;100.00;-25586.16;5056022;28;19917;-83
2022/09/06 00:57:50;;;;;;;;;;;;;;;18.44;100.00;-25586.16;5054276;28;20381;-84
2022/09/06 01:00:17;;;;;;;;;;;;;;;18.48;100.00;-25587.44;5053396;28;19956;-82
2022/09/06 01:02:49;;;;;;;;;;;;;;;18.46;100.00;-25586.88;5054057;28;19928;-78
2022/09/06 01:05:15;;;;;;;;;;;;;;;18.30;100.00;-25582.25;5053305;28;20353;-82
2022/09/06 01:07:53;;;;;;;;;;;;;;;18.21;100.00;-25579.78;5053669;28;19987;-79
2022/09/06 01:10:25;;;;;;;;;;;;;;;18.17;100.00;-25578.50;5054587;28;19967;-79
2022/09/06 01:13:03;;;;;;;;;;;;;;;18.17;100.00;-25578.50;5041536;28;20093;-78
2022/09/06 01:15:38;;;;;;;;;;;;;;;17.91;100.00;-25571.25;5055384;28;19928;-83
2022/09/06 01:18:24;;;;;;;;;;;;;;;17.86;100.00;-25569.94;5053898;28;19936;-77
2022/09/06 01:20:49;;;;;;;;;;;;;;;17.84;100.00;-25569.38;5055100;28;19976;-81
2022/09/06 01:23:36;;;;;;;;;;;;;;;17.83;100.00;-25569.06;5055163;28;19921;-80
2022/09/06 01:26:01;;;;;;;;;;;;;;;17.67;100.00;-25564.44;5054582;28;19921;-79
2022/09/06 01:28:42;;;;;;;;;;;;;;;17.68;100.00;-25564.72;5056083;28;19962;-80
2022/09/06 01:31:23;;;;;;;;;;;;;;;17.65;100.00;-25563.84;5052060;28;19920;-82
2022/09/06 01:34:11;;;;;;;;;;;;;;;17.59;100.00;-25562.41;5055871;28;20026;-82
2022/09/06 01:36:43;;;;;;;;;;;;;;;17.58;100.00;-25562.13;5054964;28;19921;-82
2022/09/06 01:39:16;;;;;;;;;;;;;;;17.62;100.00;-25563.00;5054800;28;20024;-82
2022/09/06 01:41:41;;;;;;;;;;;;;;;17.61;100.00;-25562.84;5057322;28;19932;-84
2022/09/06 01:44:12;;;;;;;;;;;;;;;17.62;100.00;-25563.00;5055385;28;19917;-80
2022/09/06 01:46:43;;;;;;;;;;;;;;;17.61;100.00;-25562.69;5055884;28;19920;-80
2022/09/06 01:49:27;;;;;;;;;;;;;;;17.51;100.00;-25560.09;5056526;28;19952;-82
2022/09/06 01:51:59;;;;;;;;;;;;;;;17.51;100.00;-25560.09;5055360;28;19937;-80
2022/09/06 01:54:31;;;;;;;;;;;;;;;17.51;100.00;-25559.94;5056782;28;19920;-80
2022/09/06 01:56:56;;;;;;;;;;;;;;;17.52;100.00;-25560.38;5056978;28;19916;-82
2022/09/06 01:59:33;;;;;;;;;;;;;;;17.53;100.00;-25560.66;5056464;28;19917;-81
2022/09/06 02:02:02;;;;;;;;;;;;;;;17.55;100.00;-25561.09;5055404;28;20332;-80
2022/09/06 02:04:30;;;;;;;;;;;;;;;17.55;100.00;-25561.09;5057959;28;19923;-83
2022/09/06 02:07:00;;;;;;;;;;;;;;;17.53;100.00;-25560.53;5058569;28;19995;-81
2022/09/06 02:09:27;;;;;;;;;;;;;;;17.52;100.00;-25560.38;5056854;28;19922;-84
2022/09/06 02:11:55;;;;;;;;;;;;;;;17.62;100.00;-25563.13;5051686;28;19967;-83
2022/09/06 02:14:39;;;;;;;;;;;;;;;17.66;100.00;-25564.16;5039116;28;19989;-85
2022/09/06 02:17:07;;;;;;;;;;;;;;;17.67;100.00;-25564.59;5053082;28;19947;-83
2022/09/06 02:19:42;;;;;;;;;;;;;;;17.73;100.00;-25566.31;5053710;28;19924;-84
2022/09/06 02:22:10;;;;;;;;;;;;;;;17.71;100.00;-25565.59;5053729;28;19921;-84
2022/09/06 02:24:36;;;;;;;;;;;;;;;17.67;100.00;-25564.44;5053507;28;20486;-85
2022/09/06 02:27:02;;;;;;;;;;;;;;;17.66;100.00;-25564.16;5053789;28;19964;-85
2022/09/06 02:29:27;;;;;;;;;;;;;;;17.63;100.00;-25563.28;5053424;28;19923;-85
2022/09/06 02:31:56;;;;;;;;;;;;;;;17.58;100.00;-25561.97;5053855;28;20112;-81
2022/09/06 02:34:28;;;;;;;;;;;;;;;17.64;100.00;-25563.56;5054206;28;19917;-86
2022/09/06 02:36:54;;;;;;;;;;;;;;;17.63;100.00;-25563.28;5052824;28;19925;-85
2022/09/06 02:39:19;;;;;;;;;;;;;;;17.62;100.00;-25563.00;5053464;28;19921;-86
2022/09/06 02:41:46;;;;;;;;;;;;;;;17.63;100.00;-25563.28;5053549;28;19912;-84
2022/09/06 02:44:14;;;;;;;;;;;;;;;17.63;100.00;-25563.28;5052785;28;19920;-84
2022/09/06 02:46:39;;;;;;;;;;;;;;;17.58;100.00;-25562.13;5053427;28;19924;-87
2022/09/06 02:49:04;;;;;;;;;;;;;;;17.62;100.00;-25563.13;5052831;28;19917;-86
2022/09/06 02:51:34;;;;;;;;;;;;;;;17.66;100.00;-25564.28;5052833;28;19917;-84
2022/09/06 02:54:16;;;;;;;;;;;;;;;17.66;100.00;-25564.16;5052719;28;19928;-85
2022/09/06 02:56:42;;;;;;;;;;;;;;;17.65;100.00;-25564.00;5052379;28;19932;-84
2022/09/06 02:59:07;;;;;;;;;;;;;;;17.66;100.00;-25564.16;5052633;28;20269;-85
2022/09/06 03:01:32;;;;;;;;;;;;;;;17.55;100.00;-25561.09;5055745;28;20292;-85
2022/09/06 03:04:18;;;;;;;;;;;;;;;17.56;100.00;-25561.41;5054490;28;19966;-86
2022/09/06 03:06:44;;;;;;;;;;;;;;;17.56;100.00;-25561.53;5052708;28;19917;-83
2022/09/06 03:09:09;;;;;;;;;;;;;;;17.54;100.00;-25560.81;5052290;28;19921;-86
2022/09/06 03:11:34;;;;;;;;;;;;;;;17.55;100.00;-25561.09;5051450;28;19967;-87
2022/09/06 03:14:05;;;;;;;;;;;;;;;17.56;100.00;-25561.41;5053489;28;19928;-84
2022/09/06 03:16:30;;;;;;;;;;;;;;;17.58;100.00;-25561.97;5052649;28;20373;-84
2022/09/06 03:18:56;;;;;;;;;;;;;;;17.61;100.00;-25562.69;5052259;28;19974;-87
2022/09/06 03:21:21;;;;;;;;;;;;;;;17.66;100.00;-25564.16;5035993;28;19921;-81
2022/09/06 03:23:46;;;;;;;;;;;;;;;17.66;100.00;-25564.28;5053115;28;19925;-86
2022/09/06 03:26:12;;;;;;;;;;;;;;;17.63;100.00;-25563.28;5052482;28;19916;-86
2022/09/06 03:28:37;;;;;;;;;;;;;;;17.64;100.00;-25563.72;5055984;28;19925;-84
2022/09/06 03:31:02;;;;;;;;;;;;;;;17.67;100.00;-25564.59;5057139;28;19924;-83
2022/09/06 03:33:28;;;;;;;;;;;;;;;17.65;100.00;-25563.84;5055672;28;19956;-83
2022/09/06 03:35:57;;;;;;;;;;;;;;;17.66;100.00;-25564.28;5055434;28;19932;-82
2022/09/06 03:38:23;;;;;;;;;;;;;;;17.66;100.00;-25564.16;5057750;28;19927;-85
2022/09/06 03:40:48;;;;;;;;;;;;;;;17.62;100.00;-25563.13;5058236;28;19921;-85
2022/09/06 03:43:16;;;;;;;;;;;;;;;17.62;100.00;-25563.00;5055809;28;19921;-85
2022/09/06 03:45:46;;;;;;;;;;;;;;;17.64;100.00;-25563.72;5055327;28;19925;-77
2022/09/06 03:48:11;;;;;;;;;;;;;;;17.63;100.00;-25563.41;5054811;28;19917;-79
2022/09/06 03:50:36;;;;;;;;;;;;;;;17.67;100.00;-25564.44;5054943;28;19921;-75
2022/09/06 03:53:02;;;;;;;;;;;;;;;17.67;100.00;-25564.44;5068332;28;20284;-77
2022/09/06 03:55:27;;;;;;;;;;;;;;;17.67;100.00;-25564.44;5058592;28;20014;-82
2022/09/06 03:57:52;;;;;;;;;;;;;;;17.58;100.00;-25562.13;5055679;28;19925;-85
2022/09/06 04:00:17;;;;;;;;;;;;;;;17.49;100.00;-25559.38;5055410;28;19921;-85
2022/09/06 04:02:50;;;;;;;;;;;;;;;17.41;100.00;-25557.34;5055744;28;19966;-83
2022/09/06 04:05:16;;;;;;;;;;;;;;;17.40;100.00;-25557.06;5054969;28;19970;-78
2022/09/06 04:07:42;;;;;;;;;;;;;;;17.47;100.00;-25558.78;5054197;28;20281;-78
2022/09/06 04:10:07;;;;;;;;;;;;;;;17.50;100.00;-25559.81;5053909;28;19927;-85
2022/09/06 04:12:34;;;;;;;;;;;;;;;17.45;100.00;-25558.19;5054473;28;19917;-78
2022/09/06 04:14:59;;;;;;;;;;;;;;;17.53;100.00;-25560.66;5052765;28;19927;-77
2022/09/06 04:17:24;;;;;;;;;;;;;;;17.51;100.00;-25560.09;5054970;28;19921;-78
2022/09/06 04:19:49;;;;;;;;;;;;;;;17.54;100.00;-25560.81;5056305;28;20374;-76
2022/09/06 04:22:15;;;;;;;;;;;;;;;17.50;100.00;-25559.66;5053911;28;19963;-78
2022/09/06 04:24:40;;;;;;;;;;;;;;;17.51;100.00;-25559.94;5059915;28;19916;-81
2022/09/06 04:27:05;;;;;;;;;;;;;;;17.53;100.00;-25560.53;5060064;28;20397;-85
2022/09/06 04:29:30;;;;;;;;;;;;;;;17.53;100.00;-25560.66;5054854;28;19962;-77
2022/09/06 04:31:56;;;;;;;;;;;;;;;17.58;100.00;-25562.13;5054791;28;20361;-80
2022/09/06 04:34:24;;;;;;;;;;;;;;;17.64;100.00;-25563.56;5054988;28;19921;-78
2022/09/06 04:36:49;;;;;;;;;;;;;;;17.62;100.00;-25563.13;5066101;28;20057;-84
2022/09/06 04:39:15;;;;;;;;;;;;;;;17.65;100.00;-25563.84;5074799;28;19962;-83
2022/09/06 04:41:41;;;;;;;;;;;;;;;17.73;100.00;-25566.31;5058038;28;19917;-80
2022/09/06 04:44:08;;;;;;;;;;;;;;;17.74;100.00;-25566.47;5054368;28;19924;-84
2022/09/06 04:46:33;;;;;;;;;;;;;;;17.75;100.00;-25566.75;5054871;28;20443;-79
2022/09/06 04:49:00;;;;;;;;;;;;;;;17.79;100.00;-25567.91;5054337;28;19916;-76
2022/09/06 04:51:26;;;;;;;;;;;;;;;17.78;100.00;-25567.63;5054397;28;19944;-77
2022/09/06 04:53:53;;;;;;;;;;;;;;;17.74;100.00;-25566.47;5071695;28;19921;-77
2022/09/06 04:56:20;;;;;;;;;;;;;;;17.61;100.00;-25562.84;5073968;28;20436;-77
2022/09/06 04:58:46;;;;;;;;;;;;;;;17.55;100.00;-25561.09;5074454;28;19921;-77
2022/09/06 05:01:12;;;;;;;;;;;;;;;17.54;100.00;-25560.97;5074411;28;20383;-78
2022/09/06 05:03:39;;;;;;;;;;;;;;;17.51;100.00;-25559.94;5074362;28;19970;-79
2022/09/06 05:06:05;;;;;;;;;;;;;;;17.51;100.00;-25559.94;5074886;28;19966;-82
2022/09/06 05:08:31;;;;;;;;;;;;;;;17.45;100.00;-25558.34;5075705;28;20330;-79
2022/09/06 05:10:56;;;;;;;;;;;;;;;17.32;100.00;-25554.72;5074274;28;20011;-80
2022/09/06 05:13:24;;;;;;;;;;;;;;;17.32;100.00;-25554.59;5073687;28;19961;-79
2022/09/06 05:15:49;;;;;;;;;;;;;;;17.28;100.00;-25553.44;5074206;28;19917;-77
2022/09/06 05:18:15;;;;;;;;;;;;;;;17.29;100.00;-25553.72;5074607;28;19917;-77
2022/09/06 05:20:41;;;;;;;;;;;;;;;17.30;100.00;-25554.16;5073818;28;19917;-80
2022/09/06 05:23:07;;;;;;;;;;;;;;;17.33;100.00;-25555.00;5073545;28;19970;-80
2022/09/06 05:25:32;;;;;;;;;;;;;;;17.45;100.00;-25558.19;5073826;28;20276;-78
2022/09/06 05:27:58;;;;;;;;;;;;;;;17.94;100.00;-25572.13;5073861;28;19917;-78
2022/09/06 05:30:23;;;;;;;;;;;;;;;18.86;100.00;-25597.88;5056139;28;19974;-78
2022/09/06 05:32:49;;;;;;;;;;;;;;;19.49;100.00;-25615.78;5053018;28;20019;-78
2022/09/06 05:35:15;;;;;;;;;;;;;;;19.84;100.00;-25625.59;5052464;28;19923;-80
2022/09/06 05:37:40;;;;;;;;;;;;;;;20.17;100.00;-25634.81;5052410;28;20008;-85
2022/09/06 05:40:08;;;;;;;;;;;;;;;20.56;100.00;-25645.63;5050628;28;19921;-85
2022/09/06 05:42:35;;;;;;;;;;;;;;;20.28;100.00;-25637.84;5052953;28;19952;-82
2022/09/06 05:45:01;;;;;;;;;;;;;;;19.69;100.00;-25621.41;5062372;28;19962;-84
2022/09/06 05:47:26;;;;;;;;;;;;;;;19.49;100.00;-25615.63;5054513;28;19921;-85
2022/09/06 05:49:52;;;;;;;;;;;;;;;19.38;100.00;-25612.75;5052781;28;19913;-84
2022/09/06 05:52:24;;;;;;;;;;;;;;;19.83;100.00;-25625.16;5052342;28;19917;-83
2022/09/06 05:54:49;;;;;;;;;;;;;;;20.36;100.00;-25640.16;5053309;28;19917;-84
2022/09/06 05:57:14;;;;;;;;;;;;;;;20.34;100.00;-25637.66;5052461;28;19917;-84
2022/09/06 05:59:39;;;;;;;;;;;;;;;20.73;100.00;-21002.94;5052718;28;19928;-84
2022/09/06 06:02:05;;;;;;;;;;;;;;;20.85;100.00;-17682.88;5052604;28;19964;-84
2022/09/06 06:04:30;;;;;;;;;;;;;;;20.70;100.00;-15686.22;5053649;28;19928;-79
2022/09/06 06:06:55;;;;;;;;;;;;;;;20.36;100.00;-17343.22;5050137;28;19982;-80
2022/09/06 06:09:21;;;;;;;;;;;;;;;20.08;100.00;-19330.53;5034214;28;19972;-77
2022/09/06 06:11:46;;;;;;;;;;;;;;;19.98;100.00;-20987.34;5052032;28;19917;-77
2022/09/06 06:14:13;;;;;;;;;;;;;;;19.44;100.00;-23294.97;5052241;28;19924;-78
2022/09/06 06:16:38;;;;;;;;;;;;;;;18.93;100.00;-25600.03;5051806;28;19924;-78
2022/09/06 06:19:04;;;;;;;;;;;;;;;18.85;100.00;-25597.72;5051655;28;19916;-77
2022/09/06 06:21:30;;;;;;;;;;;;;;;18.77;100.00;-25595.41;5053323;28;19920;-82
2022/09/06 06:24:02;;;;;;;;;;;;;;;18.75;100.00;-25594.97;5056291;28;20066;-78
2022/09/06 06:26:28;;;;;;;;;;;;;;;18.82;100.00;-25596.84;5054256;28;20052;-78
2022/09/06 06:28:54;;;;;;;;;;;;;;;18.89;100.00;-25598.88;5051662;28;19920;-75
2022/09/06 06:31:21;;;;;;;;;;;;;;;19.00;100.00;-25601.91;5051040;28;19917;-75
2022/09/06 06:33:50;;;;;;;;;;;;;;;19.27;100.00;-25609.56;5055192;28;20234;-78
2022/09/06 06:36:15;;;;;;;;;;;;;;;19.81;100.00;-25624.72;5052146;28;19923;-77
2022/09/06 06:38:41;;;;;;;;;;;;;;;20.53;100.00;-25644.78;5051411;28;19925;-76
2022/09/06 06:41:09;;;;;;;;;;;;;;;20.69;100.00;-25649.25;5051358;28;19920;-74
2022/09/06 06:43:37;;;;;;;;;;;;;;;20.53;100.00;-25644.78;5050756;28;19939;-83
2022/09/06 06:46:10;;;;;;;;;;;;;;;20.16;100.00;-25634.53;5051583;28;19938;-78
2022/09/06 06:48:36;;;;;;;;;;;;;;;19.74;100.00;-25622.72;5051578;28;19924;-80
2022/09/06 06:51:01;;;;;;;;;;;;;;;19.67;100.00;-25620.84;5051035;28;20308;-75
2022/09/06 06:53:27;;;;;;;;;;;;;;;19.74;100.00;-25622.72;5051285;28;19966;-78
2022/09/06 06:55:52;;;;;;;;;;;;;;;19.63;100.00;-25619.69;5050914;28;20023;-77
2022/09/06 06:58:18;;;;;;;;;;;;;;;19.53;100.00;-25616.78;5050787;28;19928;-75
2022/09/06 07:00:44;;;;;;;;;;;;;;;19.52;100.00;-25616.50;5051055;28;20316;-75
2022/09/06 07:03:10;;;;;;;;;;;;;;;19.48;100.00;-25615.34;5050492;28;20412;-75
2022/09/06 07:05:36;;;;;;;;;;;;;;;19.57;100.00;-25617.81;5051618;28;19920;-80
2022/09/06 07:08:01;;;;;;;;;;;;;;;19.51;100.00;-25616.22;5051303;28;20395;-84
2022/09/06 07:10:27;;;;;;;;;;;;;;;19.62;100.00;-25619.25;5051812;28;19921;-84
2022/09/06 07:13:03;;;;;;;;;;;;;;;19.77;100.00;-25623.56;5052531;28;19917;-84
2022/09/06 07:15:28;;;;;;;;;;;;;;;20.03;100.00;-25630.78;5052737;28;19917;-80
2022/09/06 07:17:54;;;;;;;;;;;;;;;19.82;100.00;-25624.88;5051744;28;19921;-75
2022/09/06 07:20:19;;;;;;;;;;;;;;;19.89;100.00;-25626.91;5050982;28;19912;-78
2022/09/06 07:22:45;;;;;;;;;;;;;;;19.84;100.00;-25625.59;5050800;28;19917;-80
2022/09/06 07:25:11;;;;;;;;;;;;;;;19.74;100.00;-25622.84;5049630;28;19994;-82
2022/09/06 07:27:37;;;;;;;;;;;;;;;19.92;100.00;-25627.75;5050718;28;19912;-82
2022/09/06 07:30:02;;;;;;;;;;;;;;;20.00;100.00;-25630.06;5051022;28;19992;-82
2022/09/06 07:32:30;;;;;;;;;;;;;;;20.14;100.00;-25633.81;5051287;28;19924;-81
2022/09/06 07:34:56;;;;;;;;;;;;;;;20.04;100.00;-25631.22;5051147;28;19916;-83
2022/09/06 07:37:21;;;;;;;;;;;;;;;20.44;100.00;-25642.31;5051041;28;20282;-80
2022/09/06 07:39:46;;;;;;;;;;;;;;;20.34;100.00;-25639.44;5051170;28;19967;-81
2022/09/06 07:42:11;;;;;;;;;;;;;;;20.27;100.00;-25637.56;5051508;28;20016;-83
2022/09/06 07:44:37;;;;;;;;;;;;;;;20.73;100.00;-25650.53;5052111;28;19917;-85
2022/09/06 07:47:05;;;;;;;;;;;;;;;21.22;100.00;-25664.22;5051400;28;19917;-81
2022/09/06 07:49:30;;;;;;;;;;;;;;;21.30;100.00;-25666.38;5051238;28;19948;-82
2022/09/06 07:51:56;;;;;;;;;;;;;;;21.45;100.00;-25668.59;5052672;28;19917;-84
2022/09/06 07:54:22;;;;;;;;;;;;;;;21.66;100.00;-20357.13;5050957;28;19917;-85
2022/09/06 07:56:47;;;;;;;;;;;;;;;21.75;100.00;-17696.84;5052689;28;19923;-85
2022/09/06 07:59:13;;;;;;;;;;;;;;;22.00;100.00;-15369.16;5051444;28;19913;-85
2022/09/06 08:01:38;;;;;;;;;;;;;;;22.16;100.00;-13037.44;5052875;28;19917;-81
2022/09/06 08:04:12;;;;;;;;;;;;;;;22.30;100.00;-6027.69;5051184;28;19947;-83
2022/09/06 08:06:39;;;;;;;;;;;;;;;22.28;100.00;326.25;5051824;28;20329;-80
2022/09/06 08:09:08;;;;;;;;;;;;;;;23.03;100.00;5365.56;5051568;28;19920;-82
2022/09/06 08:11:34;;;;;;;;;;;;;;;23.82;100.00;23228.22;5052042;28;20542;-88
2022/09/06 08:14:05;;;;;;;;;;;;;;;24.44;100.00;57527.84;5053301;28;20011;-86
2022/09/06 08:16:31;;;;;;;;;;;;;;;24.13;100.00;104089.66;5056438;28;19975;-83
2022/09/06 08:18:57;;;;;;;;;;;;;;;24.00;100.00;121330.31;5056946;28;19917;-85
2022/09/06 08:21:24;;;;;;;;;;;;;;;23.88;100.00;145179.97;5057317;28;19963;-85
2022/09/06 08:23:51;;;;;;;;;;;;;;;24.06;100.00;148765.44;5055489;28;20003;-85
2022/09/06 08:26:17;;;;;;;;;;;;;;;24.00;100.00;148750.03;5053131;28;19924;-86
2022/09/06 08:28:43;;;;;;;;;;;;;;;24.24;100.00;148810.41;5055204;28;20261;-83
2022/09/06 08:31:12;;;;;;;;;;;;;;;24.22;100.00;148803.97;5055037;28;20387;-85
2022/09/06 08:33:43;;;;;;;;;;;;;;;24.16;100.00;148789.81;5055538;28;19916;-86
2022/09/06 08:36:08;;;;;;;;;;;;;;;24.44;100.00;148859.19;5054853;28;19917;-87
2022/09/06 08:38:34;;;;;;;;;;;;;;;23.96;100.00;148739.78;5055714;28;20387;-88
2022/09/06 08:41:18;;;;;;;;;;;;;;;24.17;100.00;148793.66;5053118;28;20032;-77
2022/09/06 08:44:03;;;;;;;;;;;;;;;24.38;100.00;148846.34;5052153;28;20184;-75
2022/09/06 08:46:41;;;;;;;;;;;;;;;24.36;100.00;148841.22;5053316;28;19971;-79
2022/09/06 08:49:06;;;;;;;;;;;;;;;25.04;100.00;149010.81;5052247;28;19939;-77
2022/09/06 08:51:39;;;;;;;;;;;;;;;25.16;100.00;149039.13;5052125;28;20265;-77
2022/09/06 08:54:16;;;;;;;;;;;;;;;25.26;100.00;149064.81;5052515;28;19923;-86
2022/09/06 08:56:50;;;;;;;;;;;;;;;25.55;100.00;149136.84;5053317;28;19920;-83
2022/09/06 08:59:18;;;;;;;;;;;;;;;25.50;100.00;149124.03;5053335;28;19917;-82
2022/09/06 09:01:49;;;;;;;;;;;;;;;25.53;100.00;149133.00;5054233;28;19982;-86
2022/09/06 09:04:19;;;;;;;;;;;;;;;25.96;100.00;149239.69;5053018;28;19912;-85
2022/09/06 09:06:49;;;;;;;;;;;;;;;25.78;100.00;149195.97;5053917;28;20222;-85
2022/09/06 09:09:15;;;;;;;;;;;;;;;25.10;100.00;149024.97;5053680;28;19921;-84
2022/09/06 09:11:45;;;;;;;;;;;;;;;24.61;100.00;148902.94;5053916;28;19970;-88
2022/09/06 09:14:23;;;;;;;;;;;;;;;25.22;100.00;149054.56;5048472;28;19939;-83
2022/09/06 09:16:53;;;;;;;;;;;;;;;24.68;100.00;148920.91;5053733;28;20016;-86
2022/09/06 09:19:19;;;;;;;;;;;;;;;24.68;100.00;148920.91;5053322;28;19920;-79
2022/09/06 09:21:44;;;;;;;;;;;;;;;24.70;100.00;148924.75;5058143;28;19917;-78
2022/09/06 09:24:14;;;;;;;;;;;;;;;24.71;100.00;148928.59;5053369;28;20503;-81
2022/09/06 09:26:43;;;;;;;;;;;;;;;24.37;100.00;148842.50;5056388;28;19917;-81
2022/09/06 09:29:09;;;;;;;;;;;;;;;24.59;100.00;148897.78;5053577;28;19917;-81
2022/09/06 09:31:39;;;;;;;;;;;;;;;24.61;100.00;148901.63;5053800;28;19924;-82
2022/09/06 09:34:09;;;;;;;;;;;;;;;24.64;100.00;148910.66;5053608;28;19928;-81
2022/09/06 09:36:34;;;;;;;;;;;;;;;24.26;100.00;148814.25;5053617;28;20246;-77
2022/09/06 09:39:07;;;;;;;;;;;;;;;24.16;100.00;148789.81;5052633;28;19920;-82
2022/09/06 09:41:34;;;;;;;;;;;;;;;24.31;100.00;148828.34;5053930;28;19917;-84
2022/09/06 09:44:09;;;;;;;;;;;;;;;23.76;100.00;148689.66;5054368;28;19927;-84
2022/09/06 09:46:35;;;;;;;;;;;;;;;24.01;100.00;148753.88;5054014;28;19921;-87
2022/09/06 09:49:07;;;;;;;;;;;;;;;24.04;100.00;148759.03;5057068;28;19916;-86
2022/09/06 09:51:34;;;;;;;;;;;;;;;23.84;100.00;148711.50;5058933;28;19917;-83
2022/09/06 09:54:06;;;;;;;;;;;;;;;23.54;100.00;148635.72;5054799;28;19920;-85
2022/09/06 09:56:38;;;;;;;;;;;;;;;23.75;100.00;148687.06;5053617;28;19921;-87
2022/09/06 09:59:15;;;;;;;;;;;;;;;24.09;100.00;148773.13;5036214;28;19917;-86
2022/09/06 10:01:41;;;;;;;;;;;;;;;24.59;100.00;148897.78;5053187;28;20369;-87
2022/09/06 10:04:23;;;;;;;;;;;;;;;24.62;100.00;148905.47;5053059;28;19920;-81
2022/09/06 10:06:49;;;;;;;;;;;;;;;24.66;100.00;148915.78;5053047;28;19917;-87
2022/09/06 10:09:18;;;;;;;;;;;;;;;24.99;100.00;148996.72;5053413;28;19919;-81
2022/09/06 10:11:50;;;;;;;;;;;;;;;24.97;100.00;148991.56;5053508;28;19916;-87
2022/09/06 10:14:25;;;;;;;;;;;;;;;24.79;100.00;148946.59;5056188;28;19920;-88
2022/09/06 10:16:51;;;;;;;;;;;;;;;24.77;100.00;148941.50;5056674;28;19917;-89
2022/09/06 10:19:35;;;;;;;;;;;;;;;24.75;100.00;148936.31;5053425;28;19917;-85
2022/09/06 10:22:05;;;;;;;;;;;;;;;24.76;100.00;148940.16;5052297;28;19956;-85
2022/09/06 10:24:48;;;;;;;;;;;;;;;24.75;100.00;148937.63;5052938;28;20314;-86
2022/09/06 10:27:15;;;;;;;;;;;;;;;25.01;100.00;149001.84;5053779;28;19917;-86
2022/09/06 10:29:54;;;;;;;;;;;;;;;25.14;100.00;149033.97;5053100;28;19912;-83
2022/09/06 10:32:32;;;;;;;;;;;;;;;25.12;100.00;149030.09;5052693;28;20380;-79
2022/09/06 10:35:18;;;;;;;;;;;;;;;25.29;100.00;149072.56;5053514;28;19921;-82
2022/09/06 10:37:43;;;;;;;;;;;;;;;25.14;100.00;149035.28;5052082;28;19920;-84
2022/09/06 10:40:09;;;;;;;;;;;;;;;25.21;100.00;149053.25;5053057;28;19978;-82
2022/09/06 10:42:49;;;;;;;;;;;;;;;25.48;100.00;149118.84;5051774;28;19972;-82
2022/09/06 10:45:31;;;;;;;;;;;;;;;25.46;100.00;149115.00;5050536;28;19920;-81
2022/09/06 10:48:01;;;;;;;;;;;;;;;25.64;100.00;149160.00;5051729;28;19916;-83
2022/09/06 10:50:52;;;;;;;;;;;;;;;25.50;100.00;149125.28;5051700;28;19917;-84
2022/09/06 10:53:18;;;;;;;;;;;;;;;25.48;100.00;149118.84;5050793;28;20290;-81
2022/09/06 10:55:45;;;;;;;;;;;;;;;25.54;100.00;149134.28;5051643;28;19924;-83
2022/09/06 10:58:10;;;;;;;;;;;;;;;25.36;100.00;149090.56;5051373;28;19917;-83
2022/09/06 11:00:38;;;;;;;;;;;;;;;25.47;100.00;149116.31;5035572;28;19927;-82
2022/09/06 11:03:07;;;;;;;;;;;;;;;25.71;100.00;149177.97;5050878;28;19924;-81
2022/09/06 11:05:36;;;;;;;;;;;;;;;25.84;100.00;149208.81;5051490;28;19924;-81
2022/09/06 11:08:05;;;;;;;;;;;;;;;25.92;100.00;149229.44;5034804;28;19964;-80
2022/09/06 11:10:33;;;;;;;;;;;;;;;26.04;100.00;149260.34;5051818;28;20003;-83
2022/09/06 11:12:59;;;;;;;;;;;;;;;25.71;100.00;149176.69;5035195;28;20376;-78
2022/09/06 11:15:30;;;;;;;;;;;;;;;25.86;100.00;149214.00;5052235;28;19963;-82
2022/09/06 11:18:08;;;;;;;;;;;;;;;25.91;100.00;149226.84;5051863;28;19917;-85
2022/09/06 11:20:33;;;;;;;;;;;;;;;25.85;100.00;149211.41;5050621;28;19923;-81
2022/09/06 11:23:14;;;;;;;;;;;;;;;25.70;100.00;149175.44;5050454;28;19917;-78
2022/09/06 11:26:09;;;;;;;;;;;;;;;25.61;100.00;149153.56;5051777;28;19913;-80
2022/09/06 11:28:55;;;;;;;;;;;;;;;25.60;100.00;149149.69;5050563;28;19917;-79
2022/09/06 11:31:31;;;;;;;;;;;;;;;25.87;100.00;149217.84;5050397;28;19975;-79
2022/09/06 11:34:16;;;;;;;;;;;;;;;25.92;100.00;149229.44;5050698;28;19995;-84
2022/09/06 11:36:46;;;;;;;;;;;;;;;25.99;100.00;149247.44;5050165;28;19920;-81
2022/09/06 11:39:12;;;;;;;;;;;;;;;25.94;100.00;149234.56;5051049;28;19917;-85
2022/09/06 11:41:38;;;;;;;;;;;;;;;25.84;100.00;149208.81;5051624;28;20008;-78
2022/09/06 11:44:06;;;;;;;;;;;;;;;25.81;100.00;149202.44;5050502;28;19956;-83
2022/09/06 11:46:31;;;;;;;;;;;;;;;25.64;100.00;149160.00;5050886;28;19917;-75
2022/09/06 11:49:03;;;;;;;;;;;;;;;25.72;100.00;149180.56;5051798;28;20011;-77
2022/09/06 11:51:36;;;;;;;;;;;;;;;25.62;100.00;149156.16;5055076;28;20035;-84
2022/09/06 11:54:22;;;;;;;;;;;;;;;25.76;100.00;149190.84;5054513;28;20003;-82
2022/09/06 11:57:14;;;;;;;;;;;;;;;25.74;100.00;149184.41;5055294;28;20360;-80
2022/09/06 11:59:46;;;;;;;;;;;;;;;25.75;100.00;149188.25;5054026;28;19917;-87
2022/09/06 12:02:32;;;;;;;;;;;;;;;25.93;100.00;149231.97;5055228;28;20348;-86
2022/09/06 12:04:57;;;;;;;;;;;;;;;25.89;100.00;149222.97;5056105;28;19917;-83
2022/09/06 12:07:23;;;;;;;;;;;;;;;25.73;100.00;149183.13;5054874;28;20012;-86
2022/09/06 12:09:49;;;;;;;;;;;;;;;25.72;100.00;149179.28;5055275;28;20015;-83
2022/09/06 12:12:37;;;;;;;;;;;;;;;25.79;100.00;149198.56;5055666;28;19978;-81
2022/09/06 12:15:22;;;;;;;;;;;;;;;25.83;100.00;149207.56;5054279;28;19924;-77
2022/09/06 12:17:47;;;;;;;;;;;;;;;25.56;100.00;149140.72;5054914;28;19920;-85
2022/09/06 12:20:34;;;;;;;;;;;;;;;25.36;100.00;149090.56;5054568;28;19923;-85
2022/09/06 12:23:02;;;;;;;;;;;;;;;25.32;100.00;149080.28;5053903;28;19917;-88
2022/09/06 12:25:33;;;;;;;;;;;;;;;25.43;100.00;149108.59;5055166;28;19917;-78
2022/09/06 12:28:03;;;;;;;;;;;;;;;25.47;100.00;149116.31;5054916;28;19917;-83
2022/09/06 12:30:40;;;;;;;;;;;;;;;25.71;100.00;149177.97;5055082;28;19916;-86
2022/09/06 12:33:23;;;;;;;;;;;;;;;25.77;100.00;149193.41;5055273;28;19916;-83
2022/09/06 12:35:49;;;;;;;;;;;;;;;25.95;100.00;149237.13;5057227;28;19917;-83
2022/09/06 12:38:15;;;;;;;;;;;;;;;25.98;100.00;149246.19;5054975;28;19959;-83